NKS1888 KMCO-KFLL
Flight info
| Callsign | NKS1888 |
|---|---|
| Flight time | 0h 40m |
| Altitude | 27000 |
| Route | DDANY3 JIPOD CUUDA3 |
| Aircraft | A20N/M-SDE2E3FGHIRWXY/LB1 |
Departure
| Time | 2026-05-04 00:15 |
|---|---|
| Airport | Orlando International Airport (KMCO) |
Arrival
| Time | 2026-05-04 00:56 |
|---|---|
| Airport | Fort Lauderdale Hollywood International Airport (KFLL) |
| Time | Latitude | Longitude | Altitude | Speed | Heading |
|---|---|---|---|---|---|
| 2026-05-03 23:42 | 28.43328 | -81.31569 | 94 ft | 0 kts | 16° |
| 2026-05-04 00:02 | 28.43307 | -81.31576 | 94 ft | 4 kts | 16° |
| 2026-05-04 00:02 | 28.43286 | -81.31582 | 94 ft | 4 kts | 358° |
| 2026-05-04 00:03 | 28.43267 | -81.31572 | 92 ft | 4 kts | 282° |
| 2026-05-04 00:03 | 28.43265 | -81.31547 | 91 ft | 1 kts | 271° |
| 2026-05-04 00:05 | 28.43265 | -81.31550 | 95 ft | 2 kts | 271° |
| 2026-05-04 00:06 | 28.43267 | -81.31578 | 94 ft | 6 kts | 276° |
| 2026-05-04 00:06 | 28.43276 | -81.31636 | 94 ft | 9 kts | 281° |
| 2026-05-04 00:06 | 28.43280 | -81.31718 | 97 ft | 10 kts | 258° |
| 2026-05-04 00:06 | 28.43242 | -81.31799 | 99 ft | 14 kts | 238° |
| 2026-05-04 00:07 | 28.43161 | -81.31842 | 98 ft | 15 kts | 180° |
| 2026-05-04 00:07 | 28.43049 | -81.31840 | 98 ft | 17 kts | 179° |
| 2026-05-04 00:07 | 28.42925 | -81.31839 | 98 ft | 19 kts | 180° |
| 2026-05-04 00:07 | 28.42803 | -81.31836 | 99 ft | 16 kts | 179° |
| 2026-05-04 00:08 | 28.42689 | -81.31834 | 101 ft | 17 kts | 179° |
| 2026-05-04 00:08 | 28.42561 | -81.31832 | 101 ft | 19 kts | 180° |
| 2026-05-04 00:08 | 28.42428 | -81.31834 | 99 ft | 16 kts | 180° |
| 2026-05-04 00:08 | 28.42350 | -81.31793 | 99 ft | 14 kts | 105° |
| 2026-05-04 00:09 | 28.42348 | -81.31669 | 98 ft | 17 kts | 89° |
| 2026-05-04 00:09 | 28.42350 | -81.31523 | 98 ft | 20 kts | 89° |
| 2026-05-04 00:09 | 28.42351 | -81.31362 | 95 ft | 19 kts | 90° |
| 2026-05-04 00:09 | 28.42344 | -81.31205 | 94 ft | 21 kts | 96° |
| 2026-05-04 00:10 | 28.42320 | -81.31039 | 94 ft | 22 kts | 96° |
| 2026-05-04 00:10 | 28.42320 | -81.30887 | 94 ft | 19 kts | 86° |
| 2026-05-04 00:10 | 28.42332 | -81.30739 | 97 ft | 19 kts | 84° |
| 2026-05-04 00:10 | 28.42345 | -81.30588 | 97 ft | 20 kts | 86° |
| 2026-05-04 00:11 | 28.42357 | -81.30420 | 94 ft | 22 kts | 85° |
| 2026-05-04 00:11 | 28.42361 | -81.30242 | 94 ft | 22 kts | 90° |
| 2026-05-04 00:11 | 28.42361 | -81.30082 | 94 ft | 20 kts | 90° |
| 2026-05-04 00:11 | 28.42361 | -81.29923 | 95 ft | 18 kts | 90° |
| 2026-05-04 00:12 | 28.42363 | -81.29786 | 94 ft | 17 kts | 89° |
| 2026-05-04 00:12 | 28.42323 | -81.29700 | 95 ft | 13 kts | 175° |
| 2026-05-04 00:12 | 28.42218 | -81.29699 | 96 ft | 17 kts | 179° |
| 2026-05-04 00:12 | 28.42028 | -81.29694 | 95 ft | 35 kts | 179° |
| 2026-05-04 00:13 | 28.41795 | -81.29694 | 96 ft | 33 kts | 179° |
| 2026-05-04 00:13 | 28.41563 | -81.29687 | 95 ft | 33 kts | 180° |
| 2026-05-04 00:13 | 28.41326 | -81.29690 | 96 ft | 35 kts | 180° |
| 2026-05-04 00:13 | 28.41099 | -81.29687 | 95 ft | 30 kts | 179° |
| 2026-05-04 00:14 | 28.40901 | -81.29686 | 94 ft | 24 kts | 181° |
| 2026-05-04 00:14 | 28.40819 | -81.29635 | 93 ft | 14 kts | 92° |
| 2026-05-04 00:14 | 28.40865 | -81.29559 | 93 ft | 12 kts | 6° |
| 2026-05-04 00:14 | 28.40980 | -81.29559 | 93 ft | 32 kts | 359° |
| 2026-05-04 00:15 | 28.41442 | -81.29565 | 98 ft | 98 kts | 359° |
| 2026-05-04 00:15 | 28.42306 | -81.29574 | 101 ft | 147 kts | 359° |
| 2026-05-04 00:15 | 28.43374 | -81.29634 | 489 ft | 157 kts | 360° |
| 2026-05-04 00:15 | 28.44480 | -81.29699 | 1047 ft | 160 kts | 8° |
| 2026-05-04 00:16 | 28.45488 | -81.29275 | 1717 ft | 153 kts | 41° |
| 2026-05-04 00:16 | 28.46188 | -81.28323 | 2171 ft | 166 kts | 55° |
| 2026-05-04 00:16 | 28.46896 | -81.27185 | 2545 ft | 187 kts | 55° |
| 2026-05-04 00:16 | 28.47715 | -81.25899 | 2906 ft | 214 kts | 55° |
| 2026-05-04 00:17 | 28.48643 | -81.24450 | 3447 ft | 239 kts | 55° |
| 2026-05-04 00:17 | 28.49646 | -81.22839 | 4109 ft | 258 kts | 59° |
| 2026-05-04 00:17 | 28.50428 | -81.20970 | 4706 ft | 267 kts | 72° |
| 2026-05-04 00:17 | 28.50847 | -81.18885 | 5227 ft | 274 kts | 80° |
| 2026-05-04 00:18 | 28.51010 | -81.16729 | 6278 ft | 277 kts | 92° |
| 2026-05-04 00:18 | 28.50723 | -81.14531 | 7116 ft | 288 kts | 105° |
| 2026-05-04 00:18 | 28.50198 | -81.12297 | 7967 ft | 294 kts | 105° |
| 2026-05-04 00:18 | 28.49666 | -81.10023 | 8852 ft | 304 kts | 106° |
| 2026-05-04 00:19 | 28.49123 | -81.07667 | 9665 ft | 312 kts | 106° |
| 2026-05-04 00:19 | 28.48367 | -81.05366 | 10361 ft | 321 kts | 122° |
| 2026-05-04 00:19 | 28.46911 | -81.03366 | 10718 ft | 337 kts | 144° |
| 2026-05-04 00:19 | 28.45024 | -81.01653 | 11129 ft | 355 kts | 146° |
| 2026-05-04 00:20 | 28.43074 | -80.99909 | 11974 ft | 359 kts | 146° |
| 2026-05-04 00:20 | 28.41106 | -80.98138 | 12858 ft | 363 kts | 146° |
| 2026-05-04 00:20 | 28.39128 | -80.96347 | 13763 ft | 366 kts | 146° |
| 2026-05-04 00:20 | 28.37131 | -80.94531 | 14522 ft | 371 kts | 147° |
| 2026-05-04 00:21 | 28.35099 | -80.92683 | 15220 ft | 376 kts | 147° |
| 2026-05-04 00:21 | 28.33044 | -80.90813 | 15925 ft | 381 kts | 147° |
| 2026-05-04 00:21 | 28.30954 | -80.88912 | 16576 ft | 388 kts | 147° |
| 2026-05-04 00:21 | 28.28950 | -80.86801 | 17252 ft | 400 kts | 137° |
| 2026-05-04 00:22 | 28.27308 | -80.84175 | 17893 ft | 415 kts | 124° |
| 2026-05-04 00:22 | 28.26114 | -80.81146 | 18490 ft | 426 kts | 116° |
| 2026-05-04 00:22 | 28.25007 | -80.78014 | 19059 ft | 430 kts | 117° |
| 2026-05-04 00:22 | 28.23886 | -80.74855 | 19647 ft | 434 kts | 117° |
| 2026-05-04 00:23 | 28.22750 | -80.71675 | 20220 ft | 438 kts | 117° |
| 2026-05-04 00:23 | 28.21593 | -80.68455 | 20795 ft | 442 kts | 117° |
| 2026-05-04 00:23 | 28.20437 | -80.65205 | 21355 ft | 447 kts | 117° |
| 2026-05-04 00:23 | 28.19335 | -80.61894 | 21904 ft | 452 kts | 116° |
| 2026-05-04 00:24 | 28.18253 | -80.58562 | 22453 ft | 456 kts | 116° |
| 2026-05-04 00:24 | 28.17142 | -80.55141 | 23009 ft | 460 kts | 116° |
| 2026-05-04 00:24 | 28.16024 | -80.51726 | 23571 ft | 463 kts | 116° |
| 2026-05-04 00:24 | 28.14896 | -80.48303 | 24059 ft | 466 kts | 116° |
| 2026-05-04 00:25 | 28.13757 | -80.44861 | 24554 ft | 469 kts | 117° |
| 2026-05-04 00:25 | 28.12602 | -80.41378 | 25037 ft | 472 kts | 117° |
| 2026-05-04 00:25 | 28.11432 | -80.37894 | 25540 ft | 473 kts | 120° |
| 2026-05-04 00:25 | 28.09877 | -80.34668 | 25990 ft | 463 kts | 133° |
| 2026-05-04 00:26 | 28.07791 | -80.31957 | 26450 ft | 451 kts | 147° |
| 2026-05-04 00:26 | 28.05309 | -80.29891 | 26867 ft | 438 kts | 159° |
| 2026-05-04 00:26 | 28.02570 | -80.28515 | 27028 ft | 425 kts | 171° |
| 2026-05-04 00:26 | 27.99746 | -80.27626 | 27057 ft | 421 kts | 175° |
| 2026-05-04 00:27 | 27.96909 | -80.26799 | 27059 ft | 421 kts | 174° |
| 2026-05-04 00:27 | 27.94079 | -80.25887 | 27061 ft | 423 kts | 172° |
| 2026-05-04 00:27 | 27.91268 | -80.24889 | 27059 ft | 425 kts | 171° |
| 2026-05-04 00:27 | 27.88460 | -80.23831 | 27061 ft | 426 kts | 170° |
| 2026-05-04 00:28 | 27.85660 | -80.22748 | 27061 ft | 426 kts | 170° |
| 2026-05-04 00:28 | 27.82852 | -80.21652 | 27063 ft | 426 kts | 170° |
| 2026-05-04 00:28 | 27.80086 | -80.20571 | 27064 ft | 426 kts | 170° |
| 2026-05-04 00:28 | 27.77284 | -80.19478 | 27064 ft | 426 kts | 170° |
| 2026-05-04 00:29 | 27.74479 | -80.18386 | 27066 ft | 426 kts | 170° |
| 2026-05-04 00:29 | 27.71674 | -80.17295 | 27051 ft | 426 kts | 170° |
| 2026-05-04 00:29 | 27.68863 | -80.16203 | 27046 ft | 428 kts | 170° |
| 2026-05-04 00:29 | 27.66049 | -80.15108 | 27061 ft | 426 kts | 170° |
| 2026-05-04 00:30 | 27.63246 | -80.14020 | 27052 ft | 426 kts | 170° |
| 2026-05-04 00:30 | 27.60447 | -80.12925 | 27052 ft | 427 kts | 169° |
| 2026-05-04 00:30 | 27.57644 | -80.11778 | 27052 ft | 428 kts | 169° |
| 2026-05-04 00:30 | 27.54851 | -80.10615 | 27052 ft | 428 kts | 168° |
| 2026-05-04 00:31 | 27.52018 | -80.09435 | 27052 ft | 428 kts | 168° |
| 2026-05-04 00:31 | 27.49277 | -80.08278 | 27052 ft | 429 kts | 168° |
| 2026-05-04 00:31 | 27.46492 | -80.07096 | 26986 ft | 426 kts | 169° |
| 2026-05-04 00:31 | 27.43696 | -80.05952 | 26506 ft | 427 kts | 169° |
| 2026-05-04 00:32 | 27.40846 | -80.04801 | 25702 ft | 431 kts | 169° |
| 2026-05-04 00:32 | 27.38096 | -80.03721 | 25432 ft | 416 kts | 172° |
| 2026-05-04 00:32 | 27.35358 | -80.02868 | 25106 ft | 404 kts | 174° |
| 2026-05-04 00:32 | 27.32654 | -80.02047 | 24543 ft | 401 kts | 174° |
| 2026-05-04 00:33 | 27.29984 | -80.01234 | 24199 ft | 392 kts | 174° |
| 2026-05-04 00:33 | 27.24748 | -79.99636 | 24044 ft | 394 kts | 173° |
| 2026-05-04 00:33 | 27.22128 | -79.98735 | 23944 ft | 397 kts | 171° |
| 2026-05-04 00:34 | 27.19477 | -79.97759 | 23719 ft | 399 kts | 171° |
| 2026-05-04 00:34 | 27.16850 | -79.96777 | 23254 ft | 398 kts | 171° |
| 2026-05-04 00:34 | 27.14235 | -79.95810 | 22726 ft | 394 kts | 171° |
| 2026-05-04 00:34 | 27.11642 | -79.94862 | 22202 ft | 389 kts | 171° |
| 2026-05-04 00:35 | 27.09083 | -79.93935 | 21674 ft | 384 kts | 170° |
| 2026-05-04 00:35 | 27.06550 | -79.93022 | 21160 ft | 380 kts | 170° |
| 2026-05-04 00:35 | 27.04051 | -79.92062 | 20648 ft | 378 kts | 168° |
| 2026-05-04 00:35 | 27.01587 | -79.91056 | 20134 ft | 376 kts | 167° |
| 2026-05-04 00:36 | 26.99140 | -79.90047 | 19623 ft | 373 kts | 167° |
| 2026-05-04 00:36 | 26.96702 | -79.89049 | 19070 ft | 372 kts | 167° |
| 2026-05-04 00:36 | 26.94287 | -79.88067 | 18593 ft | 369 kts | 167° |
| 2026-05-04 00:36 | 26.91866 | -79.87088 | 18065 ft | 367 kts | 167° |
| 2026-05-04 00:37 | 26.89476 | -79.86124 | 17548 ft | 363 kts | 167° |
| 2026-05-04 00:37 | 26.87108 | -79.85169 | 17052 ft | 360 kts | 167° |
| 2026-05-04 00:37 | 26.84762 | -79.84225 | 16570 ft | 357 kts | 167° |
| 2026-05-04 00:37 | 26.82437 | -79.83290 | 16106 ft | 353 kts | 167° |
| 2026-05-04 00:38 | 26.80159 | -79.82372 | 15840 ft | 344 kts | 166° |
| 2026-05-04 00:38 | 26.77920 | -79.81472 | 15467 ft | 341 kts | 166° |
| 2026-05-04 00:38 | 26.75692 | -79.80580 | 15026 ft | 340 kts | 166° |
| 2026-05-04 00:38 | 26.73468 | -79.79688 | 14579 ft | 338 kts | 166° |
| 2026-05-04 00:39 | 26.71236 | -79.78940 | 14140 ft | 330 kts | 176° |
| 2026-05-04 00:39 | 26.68991 | -79.78903 | 13693 ft | 319 kts | 193° |
| 2026-05-04 00:39 | 26.66898 | -79.79558 | 13278 ft | 309 kts | 204° |
| 2026-05-04 00:39 | 26.64891 | -79.80390 | 13075 ft | 310 kts | 205° |
| 2026-05-04 00:40 | 26.62840 | -79.81234 | 13021 ft | 315 kts | 204° |
| 2026-05-04 00:40 | 26.60783 | -79.82073 | 12764 ft | 315 kts | 204° |
| 2026-05-04 00:40 | 26.58717 | -79.82913 | 12318 ft | 316 kts | 204° |
| 2026-05-04 00:40 | 26.56663 | -79.83748 | 11959 ft | 311 kts | 204° |
| 2026-05-04 00:41 | 26.54659 | -79.84564 | 11701 ft | 303 kts | 205° |
| 2026-05-04 00:41 | 26.52718 | -79.85443 | 11269 ft | 300 kts | 207° |
| 2026-05-04 00:41 | 26.50830 | -79.86352 | 10837 ft | 299 kts | 207° |
| 2026-05-04 00:41 | 26.48899 | -79.87285 | 10368 ft | 298 kts | 207° |
| 2026-05-04 00:42 | 26.47004 | -79.88193 | 9971 ft | 296 kts | 207° |
| 2026-05-04 00:42 | 26.45755 | -79.88784 | 9810 ft | 290 kts | 207° |
| 2026-05-04 00:42 | 26.43934 | -79.89641 | 9520 ft | 283 kts | 207° |
| 2026-05-04 00:42 | 26.41530 | -79.90771 | 8954 ft | 281 kts | 207° |
| 2026-05-04 00:43 | 26.39725 | -79.91618 | 8539 ft | 280 kts | 206° |
| 2026-05-04 00:43 | 26.37961 | -79.92504 | 8152 ft | 276 kts | 212° |
| 2026-05-04 00:43 | 26.36313 | -79.93565 | 7813 ft | 272 kts | 213° |
| 2026-05-04 00:43 | 26.34693 | -79.94612 | 7478 ft | 269 kts | 213° |
| 2026-05-04 00:44 | 26.33069 | -79.95656 | 7143 ft | 269 kts | 213° |
| 2026-05-04 00:44 | 26.31976 | -79.96358 | 6919 ft | 268 kts | 213° |
| 2026-05-04 00:44 | 26.30368 | -79.97389 | 6582 ft | 265 kts | 213° |
| 2026-05-04 00:44 | 26.28775 | -79.98412 | 6257 ft | 266 kts | 213° |
| 2026-05-04 00:45 | 26.27162 | -79.99447 | 5954 ft | 266 kts | 212° |
| 2026-05-04 00:45 | 26.25532 | -80.00396 | 5679 ft | 267 kts | 201° |
| 2026-05-04 00:45 | 26.23696 | -80.00593 | 5417 ft | 274 kts | 174° |
| 2026-05-04 00:45 | 26.21863 | -79.99971 | 5157 ft | 277 kts | 162° |
| 2026-05-04 00:46 | 26.20066 | -79.99233 | 4884 ft | 273 kts | 162° |
| 2026-05-04 00:46 | 26.18244 | -79.98690 | 4609 ft | 271 kts | 180° |
| 2026-05-04 00:46 | 26.16431 | -79.99055 | 4339 ft | 263 kts | 207° |
| 2026-05-04 00:46 | 26.15019 | -80.00283 | 4095 ft | 260 kts | 233° |
| 2026-05-04 00:47 | 26.14254 | -80.02119 | 4016 ft | 260 kts | 259° |
| 2026-05-04 00:47 | 26.14238 | -80.04117 | 4007 ft | 260 kts | 274° |
| 2026-05-04 00:47 | 26.14385 | -80.06100 | 4006 ft | 260 kts | 274° |
| 2026-05-04 00:47 | 26.14531 | -80.08107 | 4007 ft | 261 kts | 274° |
| 2026-05-04 00:48 | 26.14670 | -80.10082 | 4006 ft | 250 kts | 274° |
| 2026-05-04 00:48 | 26.14803 | -80.12005 | 4008 ft | 251 kts | 274° |
| 2026-05-04 00:48 | 26.14934 | -80.13938 | 4006 ft | 250 kts | 274° |
| 2026-05-04 00:48 | 26.15039 | -80.15872 | 4007 ft | 250 kts | 270° |
| 2026-05-04 00:49 | 26.15040 | -80.17805 | 4007 ft | 249 kts | 269° |
| 2026-05-04 00:49 | 26.15046 | -80.19737 | 4002 ft | 250 kts | 269° |
| 2026-05-04 00:49 | 26.15053 | -80.21656 | 3962 ft | 244 kts | 269° |
| 2026-05-04 00:49 | 26.15061 | -80.23532 | 3866 ft | 235 kts | 269° |
| 2026-05-04 00:50 | 26.15069 | -80.25311 | 3616 ft | 232 kts | 270° |
| 2026-05-04 00:50 | 26.15076 | -80.27139 | 3290 ft | 233 kts | 269° |
| 2026-05-04 00:50 | 26.15082 | -80.28893 | 3053 ft | 226 kts | 269° |
| 2026-05-04 00:50 | 26.15088 | -80.30667 | 3005 ft | 229 kts | 269° |
| 2026-05-04 00:51 | 26.14944 | -80.32407 | 3004 ft | 227 kts | 250° |
| 2026-05-04 00:51 | 26.14053 | -80.33849 | 3003 ft | 230 kts | 218° |
| 2026-05-04 00:51 | 26.12618 | -80.34541 | 3005 ft | 231 kts | 187° |
| 2026-05-04 00:51 | 26.11028 | -80.34345 | 3006 ft | 233 kts | 167° |
| 2026-05-04 00:52 | 26.09448 | -80.33856 | 2994 ft | 229 kts | 165° |
| 2026-05-04 00:52 | 26.07996 | -80.33298 | 2955 ft | 216 kts | 150° |
| 2026-05-04 00:52 | 26.07010 | -80.32088 | 2782 ft | 219 kts | 114° |
| 2026-05-04 00:52 | 26.06675 | -80.30467 | 2526 ft | 218 kts | 94° |
| 2026-05-04 00:53 | 26.06659 | -80.28773 | 2231 ft | 213 kts | 88° |
| 2026-05-04 00:53 | 26.06659 | -80.27175 | 1966 ft | 206 kts | 90° |
| 2026-05-04 00:53 | 26.06654 | -80.25647 | 1751 ft | 186 kts | 89° |
| 2026-05-04 00:53 | 26.06643 | -80.24262 | 1483 ft | 171 kts | 89° |
| 2026-05-04 00:54 | 26.06635 | -80.23017 | 1275 ft | 152 kts | 88° |
| 2026-05-04 00:54 | 26.06628 | -80.21901 | 1071 ft | 136 kts | 88° |
| 2026-05-04 00:54 | 26.06622 | -80.20868 | 908 ft | 135 kts | 87° |
| 2026-05-04 00:54 | 26.06615 | -80.19828 | 742 ft | 135 kts | 88° |
| 2026-05-04 00:55 | 26.06611 | -80.18787 | 574 ft | 134 kts | 87° |
| 2026-05-04 00:55 | 26.06612 | -80.17746 | 398 ft | 134 kts | 88° |
| 2026-05-04 00:55 | 26.06612 | -80.16716 | 242 ft | 134 kts | 89° |
| 2026-05-04 00:55 | 26.06586 | -80.15682 | 45 ft | 132 kts | 88° |
| 2026-05-04 00:56 | 26.06585 | -80.14757 | 26 ft | 96 kts | 91° |
| 2026-05-04 00:56 | 26.06581 | -80.14225 | 57 ft | 46 kts | 91° |
| 2026-05-04 00:56 | 26.06579 | -80.14002 | 74 ft | 25 kts | 90° |
| 2026-05-04 00:56 | 26.06603 | -80.13823 | 71 ft | 24 kts | 66° |
| 2026-05-04 00:57 | 26.06687 | -80.13718 | 72 ft | 15 kts | 26° |
| 2026-05-04 00:57 | 26.06741 | -80.13781 | 73 ft | 14 kts | 272° |
| 2026-05-04 00:57 | 26.06745 | -80.13903 | 67 ft | 17 kts | 271° |
| 2026-05-04 00:57 | 26.06717 | -80.14042 | 73 ft | 20 kts | 245° |
| 2026-05-04 00:58 | 26.06677 | -80.14197 | 52 ft | 22 kts | 268° |
| 2026-05-04 00:58 | 26.06677 | -80.14367 | 48 ft | 21 kts | 269° |
| 2026-05-04 00:58 | 26.06678 | -80.14535 | 42 ft | 18 kts | 272° |
| 2026-05-04 00:58 | 26.06677 | -80.14702 | 30 ft | 24 kts | 270° |
| 2026-05-04 00:59 | 26.06686 | -80.14870 | 21 ft | 17 kts | 283° |
| 2026-05-04 00:59 | 26.06751 | -80.14925 | 15 ft | 14 kts | 21° |
| 2026-05-04 00:59 | 26.06768 | -80.14820 | 15 ft | 16 kts | 92° |
| 2026-05-04 00:59 | 26.06766 | -80.14685 | 15 ft | 18 kts | 91° |
| 2026-05-04 01:00 | 26.06765 | -80.14561 | 15 ft | 17 kts | 87° |
| 2026-05-04 01:00 | 26.06772 | -80.14430 | 15 ft | 15 kts | 91° |
| 2026-05-04 01:00 | 26.06776 | -80.14363 | 15 ft | 5 kts | 62° |
| 2026-05-04 01:00 | 26.06815 | -80.14345 | 16 ft | 7 kts | 16° |
| 2026-05-04 01:01 | 26.06861 | -80.14341 | 15 ft | 3 kts | 356° |
| 2026-05-04 01:01 | 26.06878 | -80.14341 | 22 ft | 1 kts | 360° |
| 2026-05-04 01:01 | 26.06879 | -80.14341 | 15 ft | 0 kts | 360° |